sensor_id;sensor_type;location;lat;lon;timestamp;P1;durP1;ratioP1;P2;durP2;ratioP2
20038;SDS011;21737;42.868;25.320;2022-12-20T00:02:29;30.00;;;15.13;;
20038;SDS011;21737;42.868;25.320;2022-12-20T00:05:34;33.77;;;13.00;;
20038;SDS011;21737;42.868;25.320;2022-12-20T00:08:36;36.40;;;14.43;;
20038;SDS011;21737;42.868;25.320;2022-12-20T00:11:39;27.50;;;11.10;;
20038;SDS011;21737;42.868;25.320;2022-12-20T00:14:41;32.03;;;12.40;;
20038;SDS011;21737;42.868;25.320;2022-12-20T00:17:43;25.03;;;11.63;;
20038;SDS011;21737;42.868;25.320;2022-12-20T00:20:44;33.53;;;12.83;;
20038;SDS011;21737;42.868;25.320;2022-12-20T00:23:46;27.63;;;11.77;;
20038;SDS011;21737;42.868;25.320;2022-12-20T00:26:48;30.23;;;11.90;;
20038;SDS011;21737;42.868;25.320;2022-12-20T00:29:50;31.73;;;13.47;;
20038;SDS011;21737;42.868;25.320;2022-12-20T00:32:52;35.83;;;14.63;;
20038;SDS011;21737;42.868;25.320;2022-12-20T00:35:54;29.23;;;12.80;;
20038;SDS011;21737;42.868;25.320;2022-12-20T00:38:57;29.77;;;12.40;;
20038;SDS011;21737;42.868;25.320;2022-12-20T00:41:58;34.67;;;12.70;;
20038;SDS011;21737;42.868;25.320;2022-12-20T00:45:00;31.50;;;13.00;;
20038;SDS011;21737;42.868;25.320;2022-12-20T00:48:02;33.63;;;12.70;;
20038;SDS011;21737;42.868;25.320;2022-12-20T00:51:05;31.30;;;12.47;;
20038;SDS011;21737;42.868;25.320;2022-12-20T00:54:07;24.57;;;11.20;;
20038;SDS011;21737;42.868;25.320;2022-12-20T00:57:09;31.17;;;12.57;;
20038;SDS011;21737;42.868;25.320;2022-12-20T01:00:11;37.57;;;14.70;;
20038;SDS011;21737;42.868;25.320;2022-12-20T01:03:13;30.83;;;13.30;;
20038;SDS011;21737;42.868;25.320;2022-12-20T01:06:16;33.27;;;13.23;;
20038;SDS011;21737;42.868;25.320;2022-12-20T01:09:18;33.07;;;13.23;;
20038;SDS011;21737;42.868;25.320;2022-12-20T01:12:20;31.17;;;11.90;;
20038;SDS011;21737;42.868;25.320;2022-12-20T01:15:21;30.80;;;12.27;;
20038;SDS011;21737;42.868;25.320;2022-12-20T01:18:23;25.20;;;10.67;;
20038;SDS011;21737;42.868;25.320;2022-12-20T01:21:25;29.50;;;11.47;;
20038;SDS011;21737;42.868;25.320;2022-12-20T01:24:27;25.80;;;10.77;;
20038;SDS011;21737;42.868;25.320;2022-12-20T01:27:29;30.27;;;12.00;;
20038;SDS011;21737;42.868;25.320;2022-12-20T01:30:31;33.97;;;11.67;;
20038;SDS011;21737;42.868;25.320;2022-12-20T01:33:33;25.87;;;10.07;;
20038;SDS011;21737;42.868;25.320;2022-12-20T01:36:35;27.93;;;10.53;;
20038;SDS011;21737;42.868;25.320;2022-12-20T01:39:38;23.60;;;10.30;;
20038;SDS011;21737;42.868;25.320;2022-12-20T01:42:40;26.57;;;11.00;;
20038;SDS011;21737;42.868;25.320;2022-12-20T01:45:42;27.87;;;10.50;;
20038;SDS011;21737;42.868;25.320;2022-12-20T01:48:46;25.03;;;10.77;;
20038;SDS011;21737;42.868;25.320;2022-12-20T01:51:50;26.93;;;10.93;;
20038;SDS011;21737;42.868;25.320;2022-12-20T01:58:13;28.07;;;11.73;;
20038;SDS011;21737;42.868;25.320;2022-12-20T02:01:16;23.30;;;10.87;;
20038;SDS011;21737;42.868;25.320;2022-12-20T02:04:18;28.60;;;11.63;;
20038;SDS011;21737;42.868;25.320;2022-12-20T02:07:22;22.33;;;9.73;;
20038;SDS011;21737;42.868;25.320;2022-12-20T02:10:26;25.47;;;10.97;;
20038;SDS011;21737;42.868;25.320;2022-12-20T02:13:43;28.23;;;10.87;;
20038;SDS011;21737;42.868;25.320;2022-12-20T02:16:56;22.77;;;9.83;;
20038;SDS011;21737;42.868;25.320;2022-12-20T02:32:59;34.10;;;13.53;;
20038;SDS011;21737;42.868;25.320;2022-12-20T02:36:02;27.53;;;11.40;;
20038;SDS011;21737;42.868;25.320;2022-12-20T02:39:03;23.67;;;10.47;;
20038;SDS011;21737;42.868;25.320;2022-12-20T02:42:09;24.40;;;10.23;;
20038;SDS011;21737;42.868;25.320;2022-12-20T02:45:11;27.27;;;10.90;;
20038;SDS011;21737;42.868;25.320;2022-12-20T02:48:16;30.03;;;12.47;;
20038;SDS011;21737;42.868;25.320;2022-12-20T02:51:19;28.17;;;12.53;;
20038;SDS011;21737;42.868;25.320;2022-12-20T02:54:21;23.63;;;10.13;;
20038;SDS011;21737;42.868;25.320;2022-12-20T02:57:28;25.07;;;9.87;;
20038;SDS011;21737;42.868;25.320;2022-12-20T03:00:33;26.37;;;11.50;;
20038;SDS011;21737;42.868;25.320;2022-12-20T03:03:38;28.77;;;11.07;;
20038;SDS011;21737;42.868;25.320;2022-12-20T03:06:53;28.60;;;10.83;;
20038;SDS011;21737;42.868;25.320;2022-12-20T03:09:55;19.20;;;8.13;;
20038;SDS011;21737;42.868;25.320;2022-12-20T03:12:57;24.83;;;9.50;;
20038;SDS011;21737;42.868;25.320;2022-12-20T03:15:59;23.27;;;9.47;;
20038;SDS011;21737;42.868;25.320;2022-12-20T03:19:01;22.47;;;9.73;;
20038;SDS011;21737;42.868;25.320;2022-12-20T03:22:02;23.23;;;9.93;;
20038;SDS011;21737;42.868;25.320;2022-12-20T03:25:05;21.07;;;8.97;;
20038;SDS011;21737;42.868;25.320;2022-12-20T03:28:09;21.97;;;8.90;;
20038;SDS011;21737;42.868;25.320;2022-12-20T03:31:10;20.30;;;8.50;;
20038;SDS011;21737;42.868;25.320;2022-12-20T03:34:19;21.80;;;9.80;;
20038;SDS011;21737;42.868;25.320;2022-12-20T03:37:21;21.80;;;9.13;;
20038;SDS011;21737;42.868;25.320;2022-12-20T03:40:22;29.30;;;11.23;;
20038;SDS011;21737;42.868;25.320;2022-12-20T03:43:25;28.50;;;10.87;;
20038;SDS011;21737;42.868;25.320;2022-12-20T03:46:26;25.20;;;10.43;;
20038;SDS011;21737;42.868;25.320;2022-12-20T03:49:28;23.87;;;9.40;;
20038;SDS011;21737;42.868;25.320;2022-12-20T03:52:31;29.43;;;11.00;;
20038;SDS011;21737;42.868;25.320;2022-12-20T03:55:32;27.50;;;11.20;;
20038;SDS011;21737;42.868;25.320;2022-12-20T03:58:34;24.17;;;9.93;;
20038;SDS011;21737;42.868;25.320;2022-12-20T04:01:36;19.67;;;8.90;;
20038;SDS011;21737;42.868;25.320;2022-12-20T04:04:39;22.33;;;9.30;;
20038;SDS011;21737;42.868;25.320;2022-12-20T04:07:41;22.37;;;8.10;;
20038;SDS011;21737;42.868;25.320;2022-12-20T04:10:42;20.67;;;7.47;;
20038;SDS011;21737;42.868;25.320;2022-12-20T04:14:07;19.43;;;8.00;;
20038;SDS011;21737;42.868;25.320;2022-12-20T04:17:09;23.00;;;8.43;;
20038;SDS011;21737;42.868;25.320;2022-12-20T04:20:15;20.27;;;8.33;;
20038;SDS011;21737;42.868;25.320;2022-12-20T04:23:34;23.50;;;8.37;;
20038;SDS011;21737;42.868;25.320;2022-12-20T04:26:37;22.23;;;9.50;;
20038;SDS011;21737;42.868;25.320;2022-12-20T04:29:39;28.23;;;12.33;;
20038;SDS011;21737;42.868;25.320;2022-12-20T04:32:44;30.40;;;10.90;;
20038;SDS011;21737;42.868;25.320;2022-12-20T04:35:46;32.37;;;11.87;;
20038;SDS011;21737;42.868;25.320;2022-12-20T04:38:48;28.40;;;12.07;;
20038;SDS011;21737;42.868;25.320;2022-12-20T04:41:50;32.03;;;11.40;;
20038;SDS011;21737;42.868;25.320;2022-12-20T04:44:52;29.90;;;12.20;;
20038;SDS011;21737;42.868;25.320;2022-12-20T04:47:58;31.90;;;13.47;;
20038;SDS011;21737;42.868;25.320;2022-12-20T04:51:20;27.27;;;11.87;;
20038;SDS011;21737;42.868;25.320;2022-12-20T04:54:24;29.60;;;12.13;;
20038;SDS011;21737;42.868;25.320;2022-12-20T04:57:32;33.67;;;12.13;;
20038;SDS011;21737;42.868;25.320;2022-12-20T05:00:35;30.40;;;12.97;;
20038;SDS011;21737;42.868;25.320;2022-12-20T05:03:46;31.43;;;12.83;;
20038;SDS011;21737;42.868;25.320;2022-12-20T05:06:48;36.40;;;12.83;;
20038;SDS011;21737;42.868;25.320;2022-12-20T05:09:50;39.63;;;15.37;;
20038;SDS011;21737;42.868;25.320;2022-12-20T05:12:52;54.87;;;18.13;;
20038;SDS011;21737;42.868;25.320;2022-12-20T05:16:13;39.27;;;16.10;;
20038;SDS011;21737;42.868;25.320;2022-12-20T05:19:16;39.00;;;14.50;;
20038;SDS011;21737;42.868;25.320;2022-12-20T05:22:19;30.67;;;12.53;;
20038;SDS011;21737;42.868;25.320;2022-12-20T05:25:44;44.23;;;16.17;;
20038;SDS011;21737;42.868;25.320;2022-12-20T05:29:05;46.60;;;16.43;;
20038;SDS011;21737;42.868;25.320;2022-12-20T05:32:07;37.23;;;15.93;;
20038;SDS011;21737;42.868;25.320;2022-12-20T05:35:12;47.20;;;19.23;;
20038;SDS011;21737;42.868;25.320;2022-12-20T05:38:20;39.30;;;14.77;;
20038;SDS011;21737;42.868;25.320;2022-12-20T05:41:22;49.70;;;18.77;;
20038;SDS011;21737;42.868;25.320;2022-12-20T05:44:25;36.00;;;14.30;;
20038;SDS011;21737;42.868;25.320;2022-12-20T05:47:30;49.80;;;20.27;;
20038;SDS011;21737;42.868;25.320;2022-12-20T05:50:40;33.43;;;15.23;;
20038;SDS011;21737;42.868;25.320;2022-12-20T05:53:59;35.15;;;17.30;;
20038;SDS011;21737;42.868;25.320;2022-12-20T05:57:21;44.10;;;17.43;;
20038;SDS011;21737;42.868;25.320;2022-12-20T06:00:23;97.30;;;24.47;;
20038;SDS011;21737;42.868;25.320;2022-12-20T06:03:25;61.87;;;20.10;;
20038;SDS011;21737;42.868;25.320;2022-12-20T06:06:28;40.93;;;14.90;;
20038;SDS011;21737;42.868;25.320;2022-12-20T06:09:31;38.63;;;14.83;;
20038;SDS011;21737;42.868;25.320;2022-12-20T06:12:43;35.33;;;14.20;;
20038;SDS011;21737;42.868;25.320;2022-12-20T06:15:45;47.27;;;17.63;;
20038;SDS011;21737;42.868;25.320;2022-12-20T06:18:47;35.90;;;14.97;;
20038;SDS011;21737;42.868;25.320;2022-12-20T06:21:50;41.30;;;16.63;;
20038;SDS011;21737;42.868;25.320;2022-12-20T06:24:58;43.33;;;19.47;;
20038;SDS011;21737;42.868;25.320;2022-12-20T06:28:04;38.20;;;16.20;;
20038;SDS011;21737;42.868;25.320;2022-12-20T06:31:08;55.10;;;22.60;;
20038;SDS011;21737;42.868;25.320;2022-12-20T06:34:17;54.47;;;21.43;;
20038;SDS011;21737;42.868;25.320;2022-12-20T06:37:19;45.23;;;17.33;;
20038;SDS011;21737;42.868;25.320;2022-12-20T06:40:21;54.30;;;21.63;;
20038;SDS011;21737;42.868;25.320;2022-12-20T06:43:23;38.00;;;17.07;;
20038;SDS011;21737;42.868;25.320;2022-12-20T06:46:24;45.30;;;18.33;;
20038;SDS011;21737;42.868;25.320;2022-12-20T06:49:29;36.47;;;16.33;;
20038;SDS011;21737;42.868;25.320;2022-12-20T06:52:32;88.70;;;35.57;;
20038;SDS011;21737;42.868;25.320;2022-12-20T06:55:33;62.67;;;26.97;;
20038;SDS011;21737;42.868;25.320;2022-12-20T06:58:35;50.80;;;21.20;;
20038;SDS011;21737;42.868;25.320;2022-12-20T07:01:37;51.07;;;21.33;;
20038;SDS011;21737;42.868;25.320;2022-12-20T07:04:39;44.83;;;19.80;;
20038;SDS011;21737;42.868;25.320;2022-12-20T07:07:41;41.27;;;17.83;;
20038;SDS011;21737;42.868;25.320;2022-12-20T07:10:45;39.57;;;16.10;;
20038;SDS011;21737;42.868;25.320;2022-12-20T07:13:47;43.10;;;18.60;;
20038;SDS011;21737;42.868;25.320;2022-12-20T07:16:50;37.17;;;15.40;;
20038;SDS011;21737;42.868;25.320;2022-12-20T07:19:52;43.33;;;17.30;;
20038;SDS011;21737;42.868;25.320;2022-12-20T07:22:54;42.63;;;18.60;;
20038;SDS011;21737;42.868;25.320;2022-12-20T07:25:56;35.27;;;16.63;;
20038;SDS011;21737;42.868;25.320;2022-12-20T07:28:58;37.30;;;16.67;;
20038;SDS011;21737;42.868;25.320;2022-12-20T07:31:59;33.70;;;16.53;;
20038;SDS011;21737;42.868;25.320;2022-12-20T07:35:01;32.93;;;16.10;;
20038;SDS011;21737;42.868;25.320;2022-12-20T07:38:03;40.63;;;17.63;;
20038;SDS011;21737;42.868;25.320;2022-12-20T07:41:08;29.77;;;14.17;;
20038;SDS011;21737;42.868;25.320;2022-12-20T07:44:10;45.27;;;18.73;;
20038;SDS011;21737;42.868;25.320;2022-12-20T07:47:12;44.20;;;19.63;;
20038;SDS011;21737;42.868;25.320;2022-12-20T07:50:13;59.23;;;24.27;;
20038;SDS011;21737;42.868;25.320;2022-12-20T07:53:15;52.57;;;22.90;;
20038;SDS011;21737;42.868;25.320;2022-12-20T07:56:18;59.83;;;24.33;;
20038;SDS011;21737;42.868;25.320;2022-12-20T07:59:28;62.10;;;29.53;;
20038;SDS011;21737;42.868;25.320;2022-12-20T08:02:34;51.43;;;26.43;;
20038;SDS011;21737;42.868;25.320;2022-12-20T08:05:38;57.23;;;25.70;;
20038;SDS011;21737;42.868;25.320;2022-12-20T08:08:42;43.93;;;23.13;;
20038;SDS011;21737;42.868;25.320;2022-12-20T08:11:47;52.03;;;24.07;;
20038;SDS011;21737;42.868;25.320;2022-12-20T08:14:49;61.40;;;27.07;;
20038;SDS011;21737;42.868;25.320;2022-12-20T08:17:56;64.40;;;31.53;;
20038;SDS011;21737;42.868;25.320;2022-12-20T08:20:58;54.57;;;29.87;;
20038;SDS011;21737;42.868;25.320;2022-12-20T08:23:59;48.17;;;26.83;;
20038;SDS011;21737;42.868;25.320;2022-12-20T08:27:01;66.90;;;38.00;;
20038;SDS011;21737;42.868;25.320;2022-12-20T08:30:03;53.67;;;29.47;;
20038;SDS011;21737;42.868;25.320;2022-12-20T08:33:05;116.70;;;69.77;;
20038;SDS011;21737;42.868;25.320;2022-12-20T08:36:08;67.00;;;39.00;;
20038;SDS011;21737;42.868;25.320;2022-12-20T08:39:10;60.33;;;31.30;;
20038;SDS011;21737;42.868;25.320;2022-12-20T08:42:12;97.87;;;59.00;;
20038;SDS011;21737;42.868;25.320;2022-12-20T08:45:13;55.80;;;29.77;;
20038;SDS011;21737;42.868;25.320;2022-12-20T08:48:15;64.40;;;29.93;;
20038;SDS011;21737;42.868;25.320;2022-12-20T08:51:17;60.53;;;29.40;;
20038;SDS011;21737;42.868;25.320;2022-12-20T08:54:19;60.30;;;32.20;;
20038;SDS011;21737;42.868;25.320;2022-12-20T08:57:21;49.63;;;28.27;;
20038;SDS011;21737;42.868;25.320;2022-12-20T09:00:22;51.37;;;22.50;;
20038;SDS011;21737;42.868;25.320;2022-12-20T09:03:24;60.87;;;25.07;;
20038;SDS011;21737;42.868;25.320;2022-12-20T09:06:26;64.13;;;24.83;;
20038;SDS011;21737;42.868;25.320;2022-12-20T09:09:28;60.93;;;25.83;;
20038;SDS011;21737;42.868;25.320;2022-12-20T09:12:29;64.93;;;28.43;;
20038;SDS011;21737;42.868;25.320;2022-12-20T09:15:34;76.33;;;30.00;;
20038;SDS011;21737;42.868;25.320;2022-12-20T09:18:36;77.73;;;30.50;;
20038;SDS011;21737;42.868;25.320;2022-12-20T09:21:38;69.63;;;28.77;;
20038;SDS011;21737;42.868;25.320;2022-12-20T09:24:39;63.23;;;26.67;;
20038;SDS011;21737;42.868;25.320;2022-12-20T09:27:41;57.67;;;26.67;;
20038;SDS011;21737;42.868;25.320;2022-12-20T09:30:43;48.63;;;23.70;;
20038;SDS011;21737;42.868;25.320;2022-12-20T09:33:45;45.87;;;23.67;;
20038;SDS011;21737;42.868;25.320;2022-12-20T09:36:46;50.73;;;23.20;;
20038;SDS011;21737;42.868;25.320;2022-12-20T09:39:48;45.60;;;22.67;;
20038;SDS011;21737;42.868;25.320;2022-12-20T09:42:51;40.57;;;22.00;;
20038;SDS011;21737;42.868;25.320;2022-12-20T09:45:54;41.90;;;20.77;;
20038;SDS011;21737;42.868;25.320;2022-12-20T09:48:57;49.33;;;21.13;;
20038;SDS011;21737;42.868;25.320;2022-12-20T10:01:23;104.30;;;45.27;;
20038;SDS011;21737;42.868;25.320;2022-12-20T10:04:28;210.67;;;76.47;;
20038;SDS011;21737;42.868;25.320;2022-12-20T10:16:49;106.37;;;48.20;;
20038;SDS011;21737;42.868;25.320;2022-12-20T10:20:02;70.43;;;31.77;;
20038;SDS011;21737;42.868;25.320;2022-12-20T10:23:13;43.00;;;20.27;;
20038;SDS011;21737;42.868;25.320;2022-12-20T10:26:18;49.60;;;23.10;;
20038;SDS011;21737;42.868;25.320;2022-12-20T10:29:19;48.73;;;22.30;;
20038;SDS011;21737;42.868;25.320;2022-12-20T10:32:24;69.80;;;30.03;;
20038;SDS011;21737;42.868;25.320;2022-12-20T10:35:29;91.27;;;33.63;;
20038;SDS011;21737;42.868;25.320;2022-12-20T10:38:42;99.03;;;40.47;;
20038;SDS011;21737;42.868;25.320;2022-12-20T10:41:45;47.10;;;21.17;;
20038;SDS011;21737;42.868;25.320;2022-12-20T10:44:49;48.53;;;20.03;;
20038;SDS011;21737;42.868;25.320;2022-12-20T10:47:50;51.63;;;22.90;;
20038;SDS011;21737;42.868;25.320;2022-12-20T10:51:00;48.90;;;23.77;;
20038;SDS011;21737;42.868;25.320;2022-12-20T10:54:02;45.23;;;21.00;;
20038;SDS011;21737;42.868;25.320;2022-12-20T10:57:16;42.67;;;17.83;;
20038;SDS011;21737;42.868;25.320;2022-12-20T11:00:28;41.83;;;17.70;;
20038;SDS011;21737;42.868;25.320;2022-12-20T11:03:30;40.30;;;18.53;;
20038;SDS011;21737;42.868;25.320;2022-12-20T11:09:37;37.83;;;17.83;;
20038;SDS011;21737;42.868;25.320;2022-12-20T11:12:50;43.63;;;18.30;;
20038;SDS011;21737;42.868;25.320;2022-12-20T11:15:54;45.47;;;20.73;;
20038;SDS011;21737;42.868;25.320;2022-12-20T11:22:22;49.47;;;20.37;;
20038;SDS011;21737;42.868;25.320;2022-12-20T11:32:46;48.63;;;18.57;;
20038;SDS011;21737;42.868;25.320;2022-12-20T11:35:25;47.90;;;19.97;;
20038;SDS011;21737;42.868;25.320;2022-12-20T11:38:41;43.97;;;19.17;;
20038;SDS011;21737;42.868;25.320;2022-12-20T11:41:47;58.33;;;25.37;;
20038;SDS011;21737;42.868;25.320;2022-12-20T11:48:20;45.73;;;20.97;;
20038;SDS011;21737;42.868;25.320;2022-12-20T11:51:37;42.53;;;18.97;;
20038;SDS011;21737;42.868;25.320;2022-12-20T11:54:48;53.17;;;23.97;;
20038;SDS011;21737;42.868;25.320;2022-12-20T11:58:15;35.87;;;17.20;;
20038;SDS011;21737;42.868;25.320;2022-12-20T12:01:23;42.73;;;17.33;;
20038;SDS011;21737;42.868;25.320;2022-12-20T12:04:29;49.90;;;19.33;;
20038;SDS011;21737;42.868;25.320;2022-12-20T12:07:32;40.70;;;16.93;;
20038;SDS011;21737;42.868;25.320;2022-12-20T12:10:35;31.73;;;15.63;;
20038;SDS011;21737;42.868;25.320;2022-12-20T12:13:38;38.40;;;18.20;;
20038;SDS011;21737;42.868;25.320;2022-12-20T12:16:41;34.40;;;16.07;;
20038;SDS011;21737;42.868;25.320;2022-12-20T12:19:47;33.20;;;16.07;;
20038;SDS011;21737;42.868;25.320;2022-12-20T12:22:51;39.63;;;17.33;;
20038;SDS011;21737;42.868;25.320;2022-12-20T12:25:53;39.43;;;18.17;;
20038;SDS011;21737;42.868;25.320;2022-12-20T12:28:59;38.03;;;16.23;;
20038;SDS011;21737;42.868;25.320;2022-12-20T12:32:03;31.97;;;15.13;;
20038;SDS011;21737;42.868;25.320;2022-12-20T12:38:39;42.20;;;17.17;;
20038;SDS011;21737;42.868;25.320;2022-12-20T12:41:57;44.23;;;18.40;;
20038;SDS011;21737;42.868;25.320;2022-12-20T12:45:06;40.07;;;18.77;;
20038;SDS011;21737;42.868;25.320;2022-12-20T12:51:13;45.43;;;21.17;;
20038;SDS011;21737;42.868;25.320;2022-12-20T12:54:26;39.33;;;18.43;;
20038;SDS011;21737;42.868;25.320;2022-12-20T12:57:28;35.93;;;17.87;;
20038;SDS011;21737;42.868;25.320;2022-12-20T13:00:51;50.00;;;22.20;;
20038;SDS011;21737;42.868;25.320;2022-12-20T13:06:57;41.97;;;21.03;;
20038;SDS011;21737;42.868;25.320;2022-12-20T13:10:00;50.97;;;22.13;;
20038;SDS011;21737;42.868;25.320;2022-12-20T13:13:04;43.10;;;18.20;;
20038;SDS011;21737;42.868;25.320;2022-12-20T13:16:12;41.73;;;17.37;;
20038;SDS011;21737;42.868;25.320;2022-12-20T13:19:50;43.20;;;18.87;;
20038;SDS011;21737;42.868;25.320;2022-12-20T13:33:02;37.43;;;17.43;;
20038;SDS011;21737;42.868;25.320;2022-12-20T13:42:33;37.97;;;16.37;;
20038;SDS011;21737;42.868;25.320;2022-12-20T13:45:37;36.50;;;15.67;;
20038;SDS011;21737;42.868;25.320;2022-12-20T13:51:47;36.43;;;17.00;;
20038;SDS011;21737;42.868;25.320;2022-12-20T13:54:51;39.60;;;16.63;;
20038;SDS011;21737;42.868;25.320;2022-12-20T13:57:53;43.10;;;19.27;;
20038;SDS011;21737;42.868;25.320;2022-12-20T14:01:11;49.73;;;19.83;;
20038;SDS011;21737;42.868;25.320;2022-12-20T14:04:18;42.60;;;19.83;;
20038;SDS011;21737;42.868;25.320;2022-12-20T14:07:20;40.47;;;17.60;;
20038;SDS011;21737;42.868;25.320;2022-12-20T14:10:22;50.00;;;19.00;;
20038;SDS011;21737;42.868;25.320;2022-12-20T14:13:25;42.30;;;19.47;;
20038;SDS011;21737;42.868;25.320;2022-12-20T14:16:28;51.93;;;21.33;;
20038;SDS011;21737;42.868;25.320;2022-12-20T14:19:30;45.00;;;20.90;;
20038;SDS011;21737;42.868;25.320;2022-12-20T14:22:31;50.43;;;21.77;;
20038;SDS011;21737;42.868;25.320;2022-12-20T14:25:36;52.43;;;24.70;;
20038;SDS011;21737;42.868;25.320;2022-12-20T14:28:39;56.20;;;27.63;;
20038;SDS011;21737;42.868;25.320;2022-12-20T14:31:43;50.97;;;23.13;;
20038;SDS011;21737;42.868;25.320;2022-12-20T14:34:45;47.53;;;22.70;;
20038;SDS011;21737;42.868;25.320;2022-12-20T14:37:52;41.53;;;20.00;;
20038;SDS011;21737;42.868;25.320;2022-12-20T14:40:53;47.50;;;22.03;;
20038;SDS011;21737;42.868;25.320;2022-12-20T14:43:57;47.93;;;23.13;;
20038;SDS011;21737;42.868;25.320;2022-12-20T14:47:19;52.63;;;24.77;;
20038;SDS011;21737;42.868;25.320;2022-12-20T14:50:33;50.43;;;24.70;;
20038;SDS011;21737;42.868;25.320;2022-12-20T14:53:35;56.37;;;25.53;;
20038;SDS011;21737;42.868;25.320;2022-12-20T14:56:43;48.47;;;23.17;;
20038;SDS011;21737;42.868;25.320;2022-12-20T14:59:55;57.57;;;23.83;;
20038;SDS011;21737;42.868;25.320;2022-12-20T15:06:02;77.43;;;32.40;;
20038;SDS011;21737;42.868;25.320;2022-12-20T15:09:04;64.93;;;28.23;;
20038;SDS011;21737;42.868;25.320;2022-12-20T15:12:06;62.90;;;29.20;;
20038;SDS011;21737;42.868;25.320;2022-12-20T15:15:11;68.57;;;26.67;;
20038;SDS011;21737;42.868;25.320;2022-12-20T15:18:30;60.17;;;27.60;;
20038;SDS011;21737;42.868;25.320;2022-12-20T15:21:35;83.27;;;35.03;;
20038;SDS011;21737;42.868;25.320;2022-12-20T15:24:38;70.30;;;31.43;;
20038;SDS011;21737;42.868;25.320;2022-12-20T15:27:40;77.80;;;33.23;;
20038;SDS011;21737;42.868;25.320;2022-12-20T15:30:42;80.43;;;34.97;;
20038;SDS011;21737;42.868;25.320;2022-12-20T15:33:44;69.20;;;33.60;;
20038;SDS011;21737;42.868;25.320;2022-12-20T15:36:46;78.83;;;34.43;;
20038;SDS011;21737;42.868;25.320;2022-12-20T15:39:48;71.63;;;34.50;;
20038;SDS011;21737;42.868;25.320;2022-12-20T15:42:49;76.23;;;33.00;;
20038;SDS011;21737;42.868;25.320;2022-12-20T15:45:52;95.93;;;34.80;;
20038;SDS011;21737;42.868;25.320;2022-12-20T15:48:54;72.13;;;32.43;;
20038;SDS011;21737;42.868;25.320;2022-12-20T15:51:56;76.37;;;30.73;;
20038;SDS011;21737;42.868;25.320;2022-12-20T15:54:57;69.40;;;29.30;;
20038;SDS011;21737;42.868;25.320;2022-12-20T15:57:59;68.67;;;28.43;;
20038;SDS011;21737;42.868;25.320;2022-12-20T16:01:01;146.97;;;61.07;;
20038;SDS011;21737;42.868;25.320;2022-12-20T16:04:04;120.83;;;47.20;;
20038;SDS011;21737;42.868;25.320;2022-12-20T16:07:07;84.67;;;33.30;;
20038;SDS011;21737;42.868;25.320;2022-12-20T16:10:13;85.33;;;32.50;;
20038;SDS011;21737;42.868;25.320;2022-12-20T16:13:16;79.40;;;33.30;;
20038;SDS011;21737;42.868;25.320;2022-12-20T16:16:23;66.00;;;29.17;;
20038;SDS011;21737;42.868;25.320;2022-12-20T16:19:25;80.70;;;33.27;;
20038;SDS011;21737;42.868;25.320;2022-12-20T16:22:27;81.23;;;35.17;;
20038;SDS011;21737;42.868;25.320;2022-12-20T16:25:30;96.63;;;40.37;;
20038;SDS011;21737;42.868;25.320;2022-12-20T16:28:32;272.20;;;93.70;;
20038;SDS011;21737;42.868;25.320;2022-12-20T16:31:34;132.80;;;55.60;;
20038;SDS011;21737;42.868;25.320;2022-12-20T16:34:36;157.27;;;65.40;;
20038;SDS011;21737;42.868;25.320;2022-12-20T16:37:38;161.03;;;62.57;;
20038;SDS011;21737;42.868;25.320;2022-12-20T16:40:39;171.63;;;72.70;;
20038;SDS011;21737;42.868;25.320;2022-12-20T16:43:41;155.73;;;64.90;;
20038;SDS011;21737;42.868;25.320;2022-12-20T16:46:43;209.60;;;86.00;;
20038;SDS011;21737;42.868;25.320;2022-12-20T16:49:46;193.97;;;80.60;;
20038;SDS011;21737;42.868;25.320;2022-12-20T16:52:55;209.23;;;86.80;;
20038;SDS011;21737;42.868;25.320;2022-12-20T16:55:57;209.37;;;80.63;;
20038;SDS011;21737;42.868;25.320;2022-12-20T16:58:59;140.97;;;59.67;;
20038;SDS011;21737;42.868;25.320;2022-12-20T17:05:29;199.50;;;82.03;;
20038;SDS011;21737;42.868;25.320;2022-12-20T17:08:32;190.00;;;78.37;;
20038;SDS011;21737;42.868;25.320;2022-12-20T17:11:51;184.93;;;77.03;;
20038;SDS011;21737;42.868;25.320;2022-12-20T17:14:52;202.37;;;86.80;;
20038;SDS011;21737;42.868;25.320;2022-12-20T17:17:57;216.63;;;92.33;;
20038;SDS011;21737;42.868;25.320;2022-12-20T17:20:59;170.83;;;74.27;;
20038;SDS011;21737;42.868;25.320;2022-12-20T17:24:05;152.40;;;65.90;;
20038;SDS011;21737;42.868;25.320;2022-12-20T17:27:12;151.70;;;63.17;;
20038;SDS011;21737;42.868;25.320;2022-12-20T17:30:20;160.30;;;67.53;;
20038;SDS011;21737;42.868;25.320;2022-12-20T17:33:23;186.50;;;73.30;;
20038;SDS011;21737;42.868;25.320;2022-12-20T17:36:27;199.23;;;78.07;;
20038;SDS011;21737;42.868;25.320;2022-12-20T17:39:38;203.13;;;83.83;;
20038;SDS011;21737;42.868;25.320;2022-12-20T17:42:51;183.20;;;78.43;;
20038;SDS011;21737;42.868;25.320;2022-12-20T17:45:53;157.00;;;66.93;;
20038;SDS011;21737;42.868;25.320;2022-12-20T17:48:55;173.00;;;72.23;;
20038;SDS011;21737;42.868;25.320;2022-12-20T17:52:04;218.27;;;80.40;;
20038;SDS011;21737;42.868;25.320;2022-12-20T17:55:17;181.37;;;69.47;;
20038;SDS011;21737;42.868;25.320;2022-12-20T17:58:19;178.70;;;68.70;;
20038;SDS011;21737;42.868;25.320;2022-12-20T18:01:22;191.50;;;73.30;;
20038;SDS011;21737;42.868;25.320;2022-12-20T18:04:24;183.23;;;71.70;;
20038;SDS011;21737;42.868;25.320;2022-12-20T18:07:28;171.27;;;68.27;;
20038;SDS011;21737;42.868;25.320;2022-12-20T18:10:32;162.00;;;67.30;;
20038;SDS011;21737;42.868;25.320;2022-12-20T18:13:44;172.50;;;71.33;;
20038;SDS011;21737;42.868;25.320;2022-12-20T18:16:53;172.10;;;72.07;;
20038;SDS011;21737;42.868;25.320;2022-12-20T18:19:56;259.27;;;105.10;;
20038;SDS011;21737;42.868;25.320;2022-12-20T18:22:58;154.87;;;67.30;;
20038;SDS011;21737;42.868;25.320;2022-12-20T18:26:14;223.23;;;89.23;;
20038;SDS011;21737;42.868;25.320;2022-12-20T18:29:16;209.37;;;84.43;;
20038;SDS011;21737;42.868;25.320;2022-12-20T18:32:20;196.27;;;77.97;;
20038;SDS011;21737;42.868;25.320;2022-12-20T18:35:27;184.40;;;77.73;;
20038;SDS011;21737;42.868;25.320;2022-12-20T18:38:30;157.70;;;68.27;;
20038;SDS011;21737;42.868;25.320;2022-12-20T18:41:35;153.47;;;67.43;;
20038;SDS011;21737;42.868;25.320;2022-12-20T18:44:38;150.07;;;67.00;;
20038;SDS011;21737;42.868;25.320;2022-12-20T18:47:41;137.23;;;62.17;;
20038;SDS011;21737;42.868;25.320;2022-12-20T18:50:53;159.10;;;63.60;;
20038;SDS011;21737;42.868;25.320;2022-12-20T18:54:12;174.47;;;67.50;;
20038;SDS011;21737;42.868;25.320;2022-12-20T18:57:15;145.23;;;61.00;;
20038;SDS011;21737;42.868;25.320;2022-12-20T19:00:17;198.77;;;82.20;;
20038;SDS011;21737;42.868;25.320;2022-12-20T19:03:19;232.23;;;94.20;;
20038;SDS011;21737;42.868;25.320;2022-12-20T19:06:23;204.80;;;79.87;;
20038;SDS011;21737;42.868;25.320;2022-12-20T19:09:25;216.17;;;83.87;;
20038;SDS011;21737;42.868;25.320;2022-12-20T19:12:27;288.33;;;101.17;;